sensor_id;sensor_type;location;lat;lon;timestamp;pressure;altitude;pressure_sealevel;temperature;humidity
73085;BME280;62974;49.460;10.892;2022-08-20T00:00:46;97627.31;;;19.53;74.56
73085;BME280;62974;49.460;10.892;2022-08-20T00:03:17;97625.66;;;19.52;75.15
73085;BME280;62974;49.460;10.892;2022-08-20T00:05:50;97635.75;;;19.51;74.96
73085;BME280;62974;49.460;10.892;2022-08-20T00:08:22;97633.84;;;19.52;75.12
73085;BME280;62974;49.460;10.892;2022-08-20T00:10:51;97637.91;;;19.49;74.80
73085;BME280;62974;49.460;10.892;2022-08-20T00:13:27;97636.03;;;19.50;74.81
73085;BME280;62974;49.460;10.892;2022-08-20T00:15:55;97642.28;;;19.50;74.99
73085;BME280;62974;49.460;10.892;2022-08-20T00:18:23;97636.31;;;19.53;74.09
73085;BME280;62974;49.460;10.892;2022-08-20T00:20:52;97637.91;;;19.49;74.66
73085;BME280;62974;49.460;10.892;2022-08-20T00:23:20;97639.00;;;19.48;74.86
73085;BME280;62974;49.460;10.892;2022-08-20T00:25:49;97631.91;;;19.47;74.75
73085;BME280;62974;49.460;10.892;2022-08-20T00:28:17;97635.72;;;19.46;75.11
73085;BME280;62974;49.460;10.892;2022-08-20T00:30:46;97630.81;;;19.48;74.34
73085;BME280;62974;49.460;10.892;2022-08-20T00:33:16;97634.38;;;19.49;74.06
73085;BME280;62974;49.460;10.892;2022-08-20T00:35:46;97628.34;;;19.47;74.92
73085;BME280;62974;49.460;10.892;2022-08-20T00:38:14;97620.75;;;19.49;74.72
73085;BME280;62974;49.460;10.892;2022-08-20T00:40:45;97620.50;;;19.50;74.76
73085;BME280;62974;49.460;10.892;2022-08-20T00:43:27;97630.56;;;19.50;74.88
73085;BME280;62974;49.460;10.892;2022-08-20T00:45:58;97626.19;;;19.49;74.82
73085;BME280;62974;49.460;10.892;2022-08-20T00:48:29;97629.44;;;19.46;74.90
73085;BME280;62974;49.460;10.892;2022-08-20T00:51:01;97636.03;;;19.50;74.95
73085;BME280;62974;49.460;10.892;2022-08-20T00:53:31;97636.03;;;19.50;74.57
73085;BME280;62974;49.460;10.892;2022-08-20T00:56:00;97631.66;;;19.49;74.86
73085;BME280;62974;49.460;10.892;2022-08-20T00:58:28;97637.09;;;19.49;75.27
73085;BME280;62974;49.460;10.892;2022-08-20T01:00:57;97635.72;;;19.46;74.91
73085;BME280;62974;49.460;10.892;2022-08-20T01:03:25;97634.06;;;19.45;75.29
73085;BME280;62974;49.460;10.892;2022-08-20T01:05:52;97633.53;;;19.48;75.18
73085;BME280;62974;49.460;10.892;2022-08-20T01:08:22;97639.00;;;19.48;74.85
73085;BME280;62974;49.460;10.892;2022-08-20T01:10:53;97639.53;;;19.45;74.79
73085;BME280;62974;49.460;10.892;2022-08-20T01:13:33;97643.06;;;19.46;74.96
73085;BME280;62974;49.460;10.892;2022-08-20T01:16:09;97649.59;;;19.45;75.19
73085;BME280;62974;49.460;10.892;2022-08-20T01:18:44;97643.31;;;19.44;75.71
73085;BME280;62974;49.460;10.892;2022-08-20T01:21:15;97643.56;;;19.43;75.44
73085;BME280;62974;49.460;10.892;2022-08-20T01:23:48;97638.38;;;19.41;75.09
73085;BME280;62974;49.460;10.892;2022-08-20T01:26:22;97637.25;;;19.37;75.39
73085;BME280;62974;49.460;10.892;2022-08-20T01:28:53;97647.06;;;19.38;75.67
73085;BME280;62974;49.460;10.892;2022-08-20T01:31:25;97639.16;;;19.37;75.43
73085;BME280;62974;49.460;10.892;2022-08-20T01:33:54;97638.91;;;19.38;75.28
73085;BME280;62974;49.460;10.892;2022-08-20T01:36:24;97640.50;;;19.39;74.90
73085;BME280;62974;49.460;10.892;2022-08-20T01:38:52;97631.81;;;19.37;75.26
73085;BME280;62974;49.460;10.892;2022-08-20T01:41:33;97642.69;;;19.37;75.04
73085;BME280;62974;49.460;10.892;2022-08-20T01:44:05;97640.78;;;19.38;75.49
73085;BME280;62974;49.460;10.892;2022-08-20T01:46:44;97636.94;;;19.34;75.48
73085;BME280;62974;49.460;10.892;2022-08-20T01:49:16;97635.88;;;19.35;75.35
73085;BME280;62974;49.460;10.892;2022-08-20T01:51:49;97635.88;;;19.35;75.49
73085;BME280;62974;49.460;10.892;2022-08-20T01:54:18;97635.88;;;19.35;75.57
73085;BME280;62974;49.460;10.892;2022-08-20T01:56:54;97633.16;;;19.35;75.17
73085;BME280;62974;49.460;10.892;2022-08-20T01:59:23;97632.34;;;19.34;75.45
73085;BME280;62974;49.460;10.892;2022-08-20T02:01:51;97635.06;;;19.34;75.58
73085;BME280;62974;49.460;10.892;2022-08-20T02:04:19;97639.41;;;19.35;75.28
73085;BME280;62974;49.460;10.892;2022-08-20T02:06:49;97639.41;;;19.35;75.30
73085;BME280;62974;49.460;10.892;2022-08-20T02:09:23;97645.66;;;19.36;75.40
73085;BME280;62974;49.460;10.892;2022-08-20T02:11:52;97644.06;;;19.35;75.61
73085;BME280;62974;49.460;10.892;2022-08-20T02:14:20;97642.41;;;19.34;75.40
73085;BME280;62974;49.460;10.892;2022-08-20T02:16:47;97640.50;;;19.34;75.18
73085;BME280;62974;49.460;10.892;2022-08-20T02:19:23;97648.09;;;19.32;75.30
73085;BME280;62974;49.460;10.892;2022-08-20T02:21:54;97645.66;;;19.31;75.41
73085;BME280;62974;49.460;10.892;2022-08-20T02:24:23;97646.19;;;19.33;75.41
73085;BME280;62974;49.460;10.892;2022-08-20T02:26:53;97648.91;;;19.33;75.73
73085;BME280;62974;49.460;10.892;2022-08-20T02:29:21;97647.84;;;19.34;75.56
73085;BME280;62974;49.460;10.892;2022-08-20T02:31:49;97644.28;;;19.33;75.33
73085;BME280;62974;49.460;10.892;2022-08-20T02:34:37;97641.81;;;19.32;75.23
73085;BME280;62974;49.460;10.892;2022-08-20T02:37:06;97636.38;;;19.32;75.50
73085;BME280;62974;49.460;10.892;2022-08-20T02:39:34;97637.72;;;19.29;75.81
73085;BME280;62974;49.460;10.892;2022-08-20T02:42:03;97635.56;;;19.31;75.74
73085;BME280;62974;49.460;10.892;2022-08-20T02:44:31;97633.94;;;19.30;75.87
73085;BME280;62974;49.460;10.892;2022-08-20T02:46:58;97631.47;;;19.29;75.92
73085;BME280;62974;49.460;10.892;2022-08-20T02:49:26;97627.66;;;19.30;75.68
73085;BME280;62974;49.460;10.892;2022-08-20T02:51:54;97634.19;;;19.29;76.15
73085;BME280;62974;49.460;10.892;2022-08-20T02:54:22;97629.31;;;19.31;75.61
73085;BME280;62974;49.460;10.892;2022-08-20T02:56:50;97630.63;;;19.28;75.90
73085;BME280;62974;49.460;10.892;2022-08-20T02:59:19;97627.66;;;19.30;76.02
73085;BME280;62974;49.460;10.892;2022-08-20T03:01:47;97629.81;;;19.28;75.94
73085;BME280;62974;49.460;10.892;2022-08-20T03:04:26;97634.44;;;19.27;75.56
73085;BME280;62974;49.460;10.892;2022-08-20T03:06:54;97635.78;;;19.24;75.83
73085;BME280;62974;49.460;10.892;2022-08-20T03:09:22;97638.25;;;19.26;75.78
73085;BME280;62974;49.460;10.892;2022-08-20T03:11:49;97635.78;;;19.24;76.01
73085;BME280;62974;49.460;10.892;2022-08-20T03:14:18;97636.84;;;19.23;75.75
73085;BME280;62974;49.460;10.892;2022-08-20T03:16:46;97629.50;;;19.24;76.21
73085;BME280;62974;49.460;10.892;2022-08-20T03:19:14;97623.25;;;19.23;75.72
73085;BME280;62974;49.460;10.892;2022-08-20T03:21:42;97630.34;;;19.24;75.61
73085;BME280;62974;49.460;10.892;2022-08-20T03:24:10;97628.97;;;19.22;75.85
73085;BME280;62974;49.460;10.892;2022-08-20T03:26:38;97634.13;;;19.23;76.03
73085;BME280;62974;49.460;10.892;2022-08-20T03:29:06;97629.78;;;19.22;75.76
73085;BME280;62974;49.460;10.892;2022-08-20T03:31:35;97628.66;;;19.18;76.00
73085;BME280;62974;49.460;10.892;2022-08-20T03:34:03;97634.66;;;19.20;75.68
73085;BME280;62974;49.460;10.892;2022-08-20T03:36:30;97632.50;;;19.22;75.92
73085;BME280;62974;49.460;10.892;2022-08-20T03:39:01;97623.22;;;19.18;76.24
73085;BME280;62974;49.460;10.892;2022-08-20T03:41:29;97622.13;;;19.19;76.14
73085;BME280;62974;49.460;10.892;2022-08-20T03:43:57;97625.94;;;19.18;75.94
73085;BME280;62974;49.460;10.892;2022-08-20T03:46:25;97623.22;;;19.18;75.89
73085;BME280;62974;49.460;10.892;2022-08-20T03:48:54;97622.41;;;19.18;75.70
73085;BME280;62974;49.460;10.892;2022-08-20T03:51:26;97631.06;;;19.15;75.93
73085;BME280;62974;49.460;10.892;2022-08-20T03:53:54;97637.09;;;19.17;76.09
73085;BME280;62974;49.460;10.892;2022-08-20T03:56:22;97645.78;;;19.14;75.80
73085;BME280;62974;49.460;10.892;2022-08-20T03:58:49;97634.88;;;19.14;76.40
73085;BME280;62974;49.460;10.892;2022-08-20T04:01:17;97645.78;;;19.14;76.15
73085;BME280;62974;49.460;10.892;2022-08-20T04:04:06;97653.13;;;19.13;75.91
73085;BME280;62974;49.460;10.892;2022-08-20T04:06:38;97644.66;;;19.10;76.10
73085;BME280;62974;49.460;10.892;2022-08-20T04:09:07;97649.81;;;19.11;76.14
73085;BME280;62974;49.460;10.892;2022-08-20T04:11:37;97652.53;;;19.11;76.09
73085;BME280;62974;49.460;10.892;2022-08-20T04:14:05;97648.44;;;19.09;76.06
73085;BME280;62974;49.460;10.892;2022-08-20T04:16:34;97647.63;;;19.08;76.05
73085;BME280;62974;49.460;10.892;2022-08-20T04:19:03;97655.25;;;19.11;75.95
73085;BME280;62974;49.460;10.892;2022-08-20T04:21:34;97656.38;;;19.10;76.10
73085;BME280;62974;49.460;10.892;2022-08-20T04:24:03;97668.84;;;19.06;75.92
73085;BME280;62974;49.460;10.892;2022-08-20T04:26:32;97666.38;;;19.05;75.69
73085;BME280;62974;49.460;10.892;2022-08-20T04:29:03;97675.91;;;19.07;76.33
73085;BME280;62974;49.460;10.892;2022-08-20T04:31:30;97673.47;;;19.06;75.70
73085;BME280;62974;49.460;10.892;2022-08-20T04:34:00;97677.84;;;19.07;75.88
73085;BME280;62974;49.460;10.892;2022-08-20T04:36:28;97683.53;;;19.05;75.92
73085;BME280;62974;49.460;10.892;2022-08-20T04:38:57;97681.88;;;19.04;75.82
73085;BME280;62974;49.460;10.892;2022-08-20T04:41:25;97680.81;;;19.05;75.91
73085;BME280;62974;49.460;10.892;2022-08-20T04:43:53;97684.59;;;19.04;76.03
73085;BME280;62974;49.460;10.892;2022-08-20T04:46:22;97692.22;;;19.02;75.94
73085;BME280;62974;49.460;10.892;2022-08-20T04:48:51;97686.78;;;19.02;76.28
73085;BME280;62974;49.460;10.892;2022-08-20T04:51:19;97682.69;;;19.05;75.90
73085;BME280;62974;49.460;10.892;2022-08-20T04:53:49;97685.66;;;19.03;76.13
73085;BME280;62974;49.460;10.892;2022-08-20T04:56:21;97688.38;;;19.03;75.98
73085;BME280;62974;49.460;10.892;2022-08-20T04:58:52;97681.88;;;19.04;76.41
73085;BME280;62974;49.460;10.892;2022-08-20T05:01:20;97678.03;;;19.00;76.07
73085;BME280;62974;49.460;10.892;2022-08-20T05:03:49;97681.31;;;19.02;75.85
73085;BME280;62974;49.460;10.892;2022-08-20T05:06:21;97689.50;;;19.02;75.76
73085;BME280;62974;49.460;10.892;2022-08-20T05:08:50;97693.28;;;19.01;75.97
73085;BME280;62974;49.460;10.892;2022-08-20T05:11:20;97691.94;;;19.04;76.14
73085;BME280;62974;49.460;10.892;2022-08-20T05:14:03;97696.84;;;19.02;75.83
73085;BME280;62974;49.460;10.892;2022-08-20T05:16:31;97693.03;;;19.03;76.35
73085;BME280;62974;49.460;10.892;2022-08-20T05:19:03;97691.38;;;19.02;76.39
73085;BME280;62974;49.460;10.892;2022-08-20T05:21:32;97691.63;;;19.00;75.99
73085;BME280;62974;49.460;10.892;2022-08-20T05:24:00;97691.38;;;19.02;76.00
73085;BME280;62974;49.460;10.892;2022-08-20T05:26:29;97702.28;;;19.02;76.05
73085;BME280;62974;49.460;10.892;2022-08-20T05:28:58;97698.38;;;18.93;76.82
73085;BME280;62974;49.460;10.892;2022-08-20T05:31:26;97696.78;;;18.97;76.81
73085;BME280;62974;49.460;10.892;2022-08-20T05:33:58;97692.69;;;18.99;76.52
73085;BME280;62974;49.460;10.892;2022-08-20T05:36:26;97686.47;;;18.99;76.41
73085;BME280;62974;49.460;10.892;2022-08-20T05:38:54;97702.28;;;19.02;76.65
73085;BME280;62974;49.460;10.892;2022-08-20T05:41:21;97697.34;;;18.99;76.43
73085;BME280;62974;49.460;10.892;2022-08-20T05:43:57;97698.44;;;18.98;76.74
73085;BME280;62974;49.460;10.892;2022-08-20T05:46:27;97695.44;;;18.99;76.68
73085;BME280;62974;49.460;10.892;2022-08-20T05:48:54;97702.88;;;18.82;78.50
73085;BME280;62974;49.460;10.892;2022-08-20T05:51:25;97696.31;;;18.78;77.80
73085;BME280;62974;49.460;10.892;2022-08-20T05:53:53;97705.09;;;18.85;77.37
73085;BME280;62974;49.460;10.892;2022-08-20T05:56:24;97712.72;;;18.88;76.87
73085;BME280;62974;49.460;10.892;2022-08-20T05:58:52;97701.91;;;18.93;76.70
73085;BME280;62974;49.460;10.892;2022-08-20T06:01:21;97701.97;;;18.98;76.08
73085;BME280;62974;49.460;10.892;2022-08-20T06:03:49;97703.94;;;19.03;75.68
73085;BME280;62974;49.460;10.892;2022-08-20T06:06:34;97702.47;;;18.95;76.43
73085;BME280;62974;49.460;10.892;2022-08-20T06:09:12;97703.09;;;19.02;75.58
73085;BME280;62974;49.460;10.892;2022-08-20T06:11:41;97709.16;;;19.09;75.53
73085;BME280;62974;49.460;10.892;2022-08-20T06:14:08;97724.41;;;19.10;75.84
73085;BME280;62974;49.460;10.892;2022-08-20T06:16:37;97725.69;;;19.03;75.57
73085;BME280;62974;49.460;10.892;2022-08-20T06:19:23;97718.41;;;19.08;75.29
73085;BME280;62974;49.460;10.892;2022-08-20T06:21:51;97724.97;;;19.12;76.03
73085;BME280;62974;49.460;10.892;2022-08-20T06:24:19;97729.91;;;19.15;76.14
73085;BME280;62974;49.460;10.892;2022-08-20T06:26:54;97729.88;;;19.10;76.23
73085;BME280;62974;49.460;10.892;2022-08-20T06:29:21;97728.91;;;19.00;76.97
73085;BME280;62974;49.460;10.892;2022-08-20T06:31:50;97729.75;;;19.00;76.91
73085;BME280;62974;49.460;10.892;2022-08-20T06:34:18;97721.88;;;19.04;76.89
73085;BME280;62974;49.460;10.892;2022-08-20T06:36:46;97732.78;;;19.04;76.92
73085;BME280;62974;49.460;10.892;2022-08-20T06:39:14;97725.19;;;19.06;76.78
73085;BME280;62974;49.460;10.892;2022-08-20T06:41:42;97721.88;;;19.04;76.63
73085;BME280;62974;49.460;10.892;2022-08-20T06:44:10;97719.44;;;19.02;76.36
73085;BME280;62974;49.460;10.892;2022-08-20T06:46:37;97722.50;;;19.11;76.78
73085;BME280;62974;49.460;10.892;2022-08-20T06:49:06;97724.81;;;18.97;77.44
73085;BME280;62974;49.460;10.892;2022-08-20T06:51:34;97727.28;;;18.99;78.00
73085;BME280;62974;49.460;10.892;2022-08-20T06:54:05;97726.72;;;18.97;77.63
73085;BME280;62974;49.460;10.892;2022-08-20T06:56:33;97730.00;;;18.99;77.04
73085;BME280;62974;49.460;10.892;2022-08-20T06:59:01;97732.59;;;18.89;78.05
73085;BME280;62974;49.460;10.892;2022-08-20T07:01:29;97743.88;;;18.97;77.14
73085;BME280;62974;49.460;10.892;2022-08-20T07:03:57;97750.81;;;19.10;77.18
73085;BME280;62974;49.460;10.892;2022-08-20T07:06:27;97747.00;;;19.11;77.00
73085;BME280;62974;49.460;10.892;2022-08-20T07:08:54;97753.84;;;19.13;76.53
73085;BME280;62974;49.460;10.892;2022-08-20T07:11:22;97746.28;;;19.20;76.04
73085;BME280;62974;49.460;10.892;2022-08-20T07:13:54;97745.78;;;19.23;75.89
73085;BME280;62974;49.460;10.892;2022-08-20T07:16:23;97753.31;;;19.16;77.88
73085;BME280;62974;49.460;10.892;2022-08-20T07:18:51;97751.97;;;19.19;76.54
73085;BME280;62974;49.460;10.892;2022-08-20T07:21:19;97752.94;;;19.30;76.49
73085;BME280;62974;49.460;10.892;2022-08-20T07:23:48;97745.66;;;19.40;75.62
73085;BME280;62974;49.460;10.892;2022-08-20T07:26:16;97741.72;;;19.26;77.25
73085;BME280;62974;49.460;10.892;2022-08-20T07:28:44;97748.94;;;19.15;76.29
73085;BME280;62974;49.460;10.892;2022-08-20T07:31:12;97741.44;;;19.28;76.16
73085;BME280;62974;49.460;10.892;2022-08-20T07:34:00;97739.19;;;19.19;78.98
73085;BME280;62974;49.460;10.892;2022-08-20T07:36:28;97739.47;;;19.18;78.49
73085;BME280;62974;49.460;10.892;2022-08-20T07:38:57;97737.59;;;19.23;78.17
73085;BME280;62974;49.460;10.892;2022-08-20T07:41:31;97744.59;;;19.14;80.98
73085;BME280;62974;49.460;10.892;2022-08-20T07:44:00;97744.53;;;19.09;78.34
73085;BME280;62974;49.460;10.892;2022-08-20T07:46:27;97752.81;;;19.19;78.05
73085;BME280;62974;49.460;10.892;2022-08-20T07:48:57;97751.59;;;19.05;82.24
73085;BME280;62974;49.460;10.892;2022-08-20T07:51:25;97753.16;;;19.01;82.78
73085;BME280;62974;49.460;10.892;2022-08-20T07:53:53;97750.97;;;18.98;82.71
73085;BME280;62974;49.460;10.892;2022-08-20T07:56:25;97753.94;;;18.97;82.41
73085;BME280;62974;49.460;10.892;2022-08-20T07:58:54;97751.34;;;18.85;82.14
73085;BME280;62974;49.460;10.892;2022-08-20T08:01:26;97756.59;;;18.92;80.43
73085;BME280;62974;49.460;10.892;2022-08-20T08:03:55;97755.88;;;19.01;79.87
73085;BME280;62974;49.460;10.892;2022-08-20T08:06:26;97750.38;;;18.96;80.49
73085;BME280;62974;49.460;10.892;2022-08-20T08:09:00;97747.78;;;19.06;80.23
73085;BME280;62974;49.460;10.892;2022-08-20T08:11:32;97753.72;;;19.03;79.43
73085;BME280;62974;49.460;10.892;2022-08-20T08:14:02;97754.25;;;19.00;80.25
73085;BME280;62974;49.460;10.892;2022-08-20T08:16:31;97752.34;;;19.01;80.86
73085;BME280;62974;49.460;10.892;2022-08-20T08:19:02;97751.94;;;19.14;78.73
73085;BME280;62974;49.460;10.892;2022-08-20T08:21:32;97756.19;;;19.32;76.79
73085;BME280;62974;49.460;10.892;2022-08-20T08:24:00;97756.78;;;19.34;77.05
73085;BME280;62974;49.460;10.892;2022-08-20T08:26:28;97766.47;;;19.24;80.66
73085;BME280;62974;49.460;10.892;2022-08-20T08:28:57;97761.94;;;19.35;77.81
73085;BME280;62974;49.460;10.892;2022-08-20T08:31:24;97766.31;;;19.36;78.26
73085;BME280;62974;49.460;10.892;2022-08-20T08:33:52;97767.72;;;19.39;78.20
73085;BME280;62974;49.460;10.892;2022-08-20T08:36:20;97776.84;;;19.49;79.24
73085;BME280;62974;49.460;10.892;2022-08-20T08:38:48;97778.34;;;19.67;75.90
73085;BME280;62974;49.460;10.892;2022-08-20T08:41:18;97773.22;;;19.71;75.56
73085;BME280;62974;49.460;10.892;2022-08-20T08:43:48;97784.31;;;19.64;77.26
73085;BME280;62974;49.460;10.892;2022-08-20T08:46:23;97787.56;;;19.61;77.57
73085;BME280;62974;49.460;10.892;2022-08-20T08:48:55;97791.69;;;19.63;78.14
73085;BME280;62974;49.460;10.892;2022-08-20T08:51:27;97794.31;;;19.53;77.94
73085;BME280;62974;49.460;10.892;2022-08-20T08:53:57;97788.59;;;19.55;77.86
73085;BME280;62974;49.460;10.892;2022-08-20T08:56:33;97787.06;;;19.64;78.37
73085;BME280;62974;49.460;10.892;2022-08-20T08:59:04;97789.25;;;19.67;77.60
73085;BME280;62974;49.460;10.892;2022-08-20T09:01:40;97794.47;;;19.68;77.94
73085;BME280;62974;49.460;10.892;2022-08-20T09:04:26;97794.59;;;19.84;78.66
73085;BME280;62974;49.460;10.892;2022-08-20T09:06:55;97804.16;;;19.86;77.81
73085;BME280;62974;49.460;10.892;2022-08-20T09:09:26;97793.22;;;19.81;76.75
73085;BME280;62974;49.460;10.892;2022-08-20T09:12:02;97799.84;;;19.95;77.13
73085;BME280;62974;49.460;10.892;2022-08-20T09:14:30;97794.16;;;19.97;76.79
73085;BME280;62974;49.460;10.892;2022-08-20T09:16:59;97795.53;;;19.99;75.91
73085;BME280;62974;49.460;10.892;2022-08-20T09:19:26;97802.59;;;19.95;76.81
73085;BME280;62974;49.460;10.892;2022-08-20T09:21:54;97811.06;;;19.99;76.64
73085;BME280;62974;49.460;10.892;2022-08-20T09:24:22;97806.22;;;20.06;76.13
73085;BME280;62974;49.460;10.892;2022-08-20T09:26:50;97810.84;;;20.05;77.49
73085;BME280;62974;49.460;10.892;2022-08-20T09:29:17;97808.56;;;19.92;76.86
73085;BME280;62974;49.460;10.892;2022-08-20T09:31:46;97804.53;;;20.00;76.68
73085;BME280;62974;49.460;10.892;2022-08-20T09:34:15;97806.53;;;20.09;77.25
73085;BME280;62974;49.460;10.892;2022-08-20T09:36:43;97806.78;;;20.08;77.32
73085;BME280;62974;49.460;10.892;2022-08-20T09:39:10;97803.81;;;20.14;77.30
73085;BME280;62974;49.460;10.892;2022-08-20T09:41:38;97806.00;;;20.12;76.13
73085;BME280;62974;49.460;10.892;2022-08-20T09:44:06;97808.47;;;20.14;75.96
73085;BME280;62974;49.460;10.892;2022-08-20T09:46:34;97803.28;;;20.12;75.37
73085;BME280;62974;49.460;10.892;2022-08-20T09:49:02;97791.53;;;20.12;75.26
73085;BME280;62974;49.460;10.892;2022-08-20T09:51:31;97796.22;;;20.16;75.17
73085;BME280;62974;49.460;10.892;2022-08-20T09:54:04;97789.97;;;20.21;74.96
73085;BME280;62974;49.460;10.892;2022-08-20T09:56:32;97792.16;;;20.24;75.30
73085;BME280;62974;49.460;10.892;2022-08-20T09:59:01;97793.00;;;20.25;75.27
73085;BME280;62974;49.460;10.892;2022-08-20T10:01:28;97797.69;;;20.29;75.09
73085;BME280;62974;49.460;10.892;2022-08-20T10:03:56;97806.19;;;20.33;75.97
73085;BME280;62974;49.460;10.892;2022-08-20T10:06:24;97803.69;;;20.31;74.88
73085;BME280;62974;49.460;10.892;2022-08-20T10:08:53;97796.09;;;20.38;75.14
73085;BME280;62974;49.460;10.892;2022-08-20T10:11:20;97798.56;;;20.40;75.57
73085;BME280;62974;49.460;10.892;2022-08-20T10:13:48;97796.72;;;20.45;75.92
73085;BME280;62974;49.460;10.892;2022-08-20T10:16:15;97797.28;;;20.52;74.62
73085;BME280;62974;49.460;10.892;2022-08-20T10:18:43;97804.19;;;20.65;73.57
73085;BME280;62974;49.460;10.892;2022-08-20T10:21:11;97796.00;;;20.65;73.78
73085;BME280;62974;49.460;10.892;2022-08-20T10:23:39;97798.53;;;20.77;73.11
73085;BME280;62974;49.460;10.892;2022-08-20T10:26:09;97799.56;;;20.66;73.67
73085;BME280;62974;49.460;10.892;2022-08-20T10:28:38;97798.19;;;20.68;73.56
73085;BME280;62974;49.460;10.892;2022-08-20T10:31:07;97800.09;;;20.68;73.25
73085;BME280;62974;49.460;10.892;2022-08-20T10:33:35;97804.22;;;20.75;73.20
73085;BME280;62974;49.460;10.892;2022-08-20T10:36:07;97802.38;;;20.81;73.88
73085;BME280;62974;49.460;10.892;2022-08-20T10:38:35;97803.19;;;20.81;73.15
73085;BME280;62974;49.460;10.892;2022-08-20T10:41:03;97799.94;;;20.89;73.32
73085;BME280;62974;49.460;10.892;2022-08-20T10:43:32;97796.13;;;20.95;74.03
73085;BME280;62974;49.460;10.892;2022-08-20T10:46:00;97794.25;;;21.01;72.56
73085;BME280;62974;49.460;10.892;2022-08-20T10:48:28;97789.63;;;21.01;73.14
73085;BME280;62974;49.460;10.892;2022-08-20T10:50:56;97788.81;;;21.11;73.03
73085;BME280;62974;49.460;10.892;2022-08-20T10:53:24;97788.47;;;20.87;72.88
73085;BME280;62974;49.460;10.892;2022-08-20T10:55:52;97792.63;;;21.05;73.42
73085;BME280;62974;49.460;10.892;2022-08-20T10:58:20;97792.41;;;21.12;72.95
73085;BME280;62974;49.460;10.892;2022-08-20T11:00:51;97785.88;;;21.13;72.70
73085;BME280;62974;49.460;10.892;2022-08-20T11:03:19;97786.69;;;21.18;72.61
73085;BME280;62974;49.460;10.892;2022-08-20T11:05:47;97791.38;;;21.28;72.10
73085;BME280;62974;49.460;10.892;2022-08-20T11:08:14;97784.28;;;21.37;73.18
73085;BME280;62974;49.460;10.892;2022-08-20T11:10:59;97787.84;;;21.42;72.54
73085;BME280;62974;49.460;10.892;2022-08-20T11:13:27;97791.94;;;21.40;72.64
73085;BME280;62974;49.460;10.892;2022-08-20T11:15:56;97785.34;;;21.31;71.58
73085;BME280;62974;49.460;10.892;2022-08-20T11:18:24;97785.06;;;21.27;71.10
73085;BME280;62974;49.460;10.892;2022-08-20T11:20:51;97787.59;;;21.44;70.82
73085;BME280;62974;49.460;10.892;2022-08-20T11:23:19;97776.94;;;21.52;71.07
73085;BME280;62974;49.460;10.892;2022-08-20T11:25:47;97784.31;;;21.47;70.62
73085;BME280;62974;49.460;10.892;2022-08-20T11:28:15;97783.75;;;21.50;72.29
73085;BME280;62974;49.460;10.892;2022-08-20T11:30:58;97788.66;;;21.43;71.50
73085;BME280;62974;49.460;10.892;2022-08-20T11:33:27;97777.16;;;21.26;70.94
73085;BME280;62974;49.460;10.892;2022-08-20T11:35:54;97785.56;;;21.14;71.46
73085;BME280;62974;49.460;10.892;2022-08-20T11:38:22;97775.47;;;21.15;71.61
73085;BME280;62974;49.460;10.892;2022-08-20T11:40:49;97773.84;;;21.14;71.53
73085;BME280;62974;49.460;10.892;2022-08-20T11:43:17;97773.31;;;21.17;71.80
73085;BME280;62974;49.460;10.892;2022-08-20T11:45:53;97768.69;;;21.27;70.72
73085;BME280;62974;49.460;10.892;2022-08-20T11:48:22;97770.91;;;21.35;70.43
73085;BME280;62974;49.460;10.892;2022-08-20T11:50:50;97778.00;;;21.46;70.04
73085;BME280;62974;49.460;10.892;2022-08-20T11:53:18;97775.84;;;21.53;69.76
73085;BME280;62974;49.460;10.892;2022-08-20T11:55:47;97773.13;;;21.74;69.90
73085;BME280;62974;49.460;10.892;2022-08-20T11:58:15;97775.88;;;21.79;69.33
73085;BME280;62974;49.460;10.892;2022-08-20T12:00:43;97772.88;;;21.80;68.89
73085;BME280;62974;49.460;10.892;2022-08-20T12:03:11;97773.13;;;21.84;68.06
73085;BME280;62974;49.460;10.892;2022-08-20T12:05:42;97775.34;;;21.92;68.12
73085;BME280;62974;49.460;10.892;2022-08-20T12:08:11;97766.03;;;21.98;67.60
73085;BME280;62974;49.460;10.892;2022-08-20T12:10:54;97773.97;;;21.94;66.16
73085;BME280;62974;49.460;10.892;2022-08-20T12:13:21;97766.56;;;21.80;66.50
73085;BME280;62974;49.460;10.892;2022-08-20T12:16:09;97774.22;;;21.88;67.65
73085;BME280;62974;49.460;10.892;2022-08-20T12:18:37;97777.78;;;21.68;69.04
73085;BME280;62974;49.460;10.892;2022-08-20T12:21:06;97788.38;;;21.34;70.21
73085;BME280;62974;49.460;10.892;2022-08-20T12:23:34;97794.06;;;21.13;72.90
73085;BME280;62974;49.460;10.892;2022-08-20T12:26:01;97792.88;;;20.98;73.30
73085;BME280;62974;49.460;10.892;2022-08-20T12:28:30;97797.75;;;20.91;74.51
73085;BME280;62974;49.460;10.892;2022-08-20T12:30:58;97809.69;;;20.75;76.12
73085;BME280;62974;49.460;10.892;2022-08-20T12:33:25;97796.84;;;20.71;76.16
73085;BME280;62974;49.460;10.892;2022-08-20T12:35:53;97800.69;;;20.75;76.25
73085;BME280;62974;49.460;10.892;2022-08-20T12:38:22;97793.31;;;20.75;76.65
73085;BME280;62974;49.460;10.892;2022-08-20T12:40:50;97785.63;;;20.62;76.14
73085;BME280;62974;49.460;10.892;2022-08-20T12:43:17;97791.09;;;20.67;75.87
73085;BME280;62974;49.460;10.892;2022-08-20T12:45:50;97794.41;;;20.69;75.74
73085;BME280;62974;49.460;10.892;2022-08-20T12:48:18;97797.69;;;20.76;76.54
73085;BME280;62974;49.460;10.892;2022-08-20T12:50:46;97805.56;;;20.68;76.95
73085;BME280;62974;49.460;10.892;2022-08-20T12:53:15;97808.22;;;20.52;77.86
73085;BME280;62974;49.460;10.892;2022-08-20T12:55:44;97804.19;;;20.65;77.07
73085;BME280;62974;49.460;10.892;2022-08-20T12:58:12;97808.38;;;20.78;76.41
73085;BME280;62974;49.460;10.892;2022-08-20T13:00:42;97802.94;;;20.88;76.77
73085;BME280;62974;49.460;10.892;2022-08-20T13:03:17;97800.78;;;20.95;76.08